createdAt,value
2022-11-08T00:02:25.961Z,50.78
2022-11-08T00:04:55.878Z,58.70
2022-11-08T00:07:45.088Z,44.83
2022-11-08T00:10:34.187Z,41.17
2022-11-08T00:13:23.698Z,39.72
2022-11-08T00:15:53.991Z,49.28
2022-11-08T00:18:23.904Z,42.47
2022-11-08T00:20:53.882Z,38.00
2022-11-08T00:23:23.781Z,37.03
2022-11-08T00:25:57.348Z,36.83
2022-11-08T00:28:27.192Z,42.10
2022-11-08T00:30:57.099Z,43.35
2022-11-08T00:33:27.015Z,40.90
2022-11-08T00:36:01.425Z,46.88
2022-11-08T00:38:31.426Z,51.97
2022-11-08T00:41:01.246Z,46.50
2022-11-08T00:43:31.113Z,45.20
2022-11-08T00:46:01.060Z,43.85
2022-11-08T00:48:31.036Z,38.95
2022-11-08T00:51:05.750Z,42.50
2022-11-08T00:53:38.244Z,39.83
2022-11-08T00:56:10.459Z,39.72
2022-11-08T00:58:40.951Z,43.35
2022-11-08T01:01:20.456Z,42.97
2022-11-08T01:03:51.576Z,39.63
2022-11-08T01:06:23.327Z,38.25
2022-11-08T01:08:53.737Z,42.55
2022-11-08T01:11:26.353Z,43.30
2022-11-08T01:14:00.420Z,39.85
2022-11-08T01:16:33.577Z,40.45
2022-11-08T01:19:04.048Z,37.72
2022-11-08T01:21:33.699Z,45.78
2022-11-08T01:24:03.337Z,40.33
2022-11-08T01:26:33.133Z,37.65
2022-11-08T01:29:02.829Z,35.50
2022-11-08T01:31:33.837Z,37.05
2022-11-08T01:34:03.508Z,45.95
2022-11-08T01:36:33.179Z,39.45
2022-11-08T01:39:02.806Z,40.60
2022-11-08T01:41:32.396Z,44.95
2022-11-08T01:44:02.337Z,40.63
2022-11-08T01:46:40.599Z,41.67
2022-11-08T01:49:31.621Z,45.78
2022-11-08T01:52:12.008Z,41.33
2022-11-08T01:55:20.645Z,43.10
2022-11-08T01:58:09.960Z,42.85
2022-11-08T02:00:41.517Z,42.17
2022-11-08T02:03:14.430Z,47.78
2022-11-08T02:05:44.173Z,40.95
2022-11-08T02:08:44.882Z,40.95
2022-11-08T02:11:18.280Z,48.63
2022-11-08T02:13:48.137Z,44.13
2022-11-08T02:16:19.785Z,40.90
2022-11-08T02:18:51.182Z,46.90
2022-11-08T02:21:37.524Z,43.92
2022-11-08T02:24:12.689Z,41.95
2022-11-08T02:26:43.316Z,43.08
2022-11-08T02:29:37.051Z,41.33
2022-11-08T02:32:08.129Z,38.38
2022-11-08T02:34:46.081Z,37.55
2022-11-08T02:37:18.495Z,40.60
2022-11-08T02:39:49.574Z,34.83
2022-11-08T02:42:21.411Z,35.22
2022-11-08T02:44:51.522Z,42.78
2022-11-08T02:47:21.436Z,40.50
2022-11-08T02:49:51.345Z,41.75
2022-11-08T02:52:21.296Z,36.78
2022-11-08T02:54:51.284Z,28.40
2022-11-08T02:57:21.183Z,28.10
2022-11-08T02:59:51.234Z,27.17
2022-11-08T03:02:21.320Z,34.88
2022-11-08T03:04:51.327Z,28.83
2022-11-08T03:07:24.848Z,30.30
2022-11-08T03:09:55.025Z,29.45
2022-11-08T03:12:25.006Z,26.15
2022-11-08T03:14:54.939Z,25.90
2022-11-08T03:17:25.140Z,28.08
2022-11-08T03:19:55.751Z,25.20
2022-11-08T03:22:25.746Z,27.35
2022-11-08T03:24:55.761Z,27.52
2022-11-08T03:27:25.790Z,28.10
2022-11-08T03:29:55.613Z,25.35
2022-11-08T03:32:25.794Z,28.05
2022-11-08T03:34:55.747Z,27.65
2022-11-08T03:37:25.580Z,29.05
2022-11-08T03:39:55.430Z,29.42
2022-11-08T03:42:25.355Z,27.50
2022-11-08T03:44:55.205Z,27.13
2022-11-08T03:47:25.091Z,24.38
2022-11-08T03:49:55.064Z,23.13
2022-11-08T03:52:24.917Z,25.35
2022-11-08T03:54:54.877Z,27.10
2022-11-08T03:57:24.787Z,26.67
2022-11-08T03:59:54.686Z,23.85
2022-11-08T04:02:24.775Z,26.35
2022-11-08T04:04:54.701Z,30.67
2022-11-08T04:07:24.707Z,22.95
2022-11-08T04:09:54.386Z,27.35
2022-11-08T04:12:43.860Z,24.80
2022-11-08T04:15:17.163Z,28.58
2022-11-08T04:18:08.647Z,24.35
2022-11-08T04:21:04.575Z,36.90
2022-11-08T04:23:35.954Z,30.63
2022-11-08T04:26:09.539Z,28.23
2022-11-08T04:28:40.581Z,26.38
2022-11-08T04:31:17.168Z,23.60
2022-11-08T04:33:47.909Z,28.67
2022-11-08T04:36:19.396Z,21.83
2022-11-08T04:38:53.284Z,24.33
2022-11-08T04:41:25.371Z,24.55
2022-11-08T04:43:59.305Z,26.15
2022-11-08T04:46:31.002Z,29.02
2022-11-08T04:49:02.242Z,24.63
2022-11-08T04:51:34.593Z,23.58
2022-11-08T04:54:06.690Z,25.58
2022-11-08T04:56:37.116Z,27.02
2022-11-08T04:59:11.864Z,24.55
2022-11-08T05:01:42.387Z,23.42
2022-11-08T05:04:12.387Z,27.98
2022-11-08T05:06:42.243Z,23.08
2022-11-08T05:09:12.827Z,22.95
2022-11-08T05:11:45.648Z,23.60
2022-11-08T05:14:15.642Z,26.10
2022-11-08T05:16:45.541Z,24.85
2022-11-08T05:19:15.747Z,26.33
2022-11-08T05:22:05.513Z,23.15
2022-11-08T05:24:35.060Z,28.83
2022-11-08T05:27:04.548Z,28.58
2022-11-08T05:29:38.535Z,25.52
2022-11-08T05:32:10.772Z,24.63
2022-11-08T05:34:40.350Z,30.88
2022-11-08T05:37:09.971Z,22.35
2022-11-08T05:39:39.558Z,24.92
2022-11-08T05:42:09.148Z,24.58
2022-11-08T05:44:38.680Z,22.55
2022-11-08T05:47:08.246Z,23.90
2022-11-08T05:49:37.835Z,29.88
2022-11-08T05:52:07.783Z,24.60
2022-11-08T05:54:37.550Z,24.75
2022-11-08T05:57:07.177Z,26.63
2022-11-08T05:59:37.014Z,25.63
2022-11-08T06:02:06.630Z,24.83
2022-11-08T06:04:36.292Z,28.98
2022-11-08T06:07:05.841Z,26.58
2022-11-08T06:09:35.419Z,24.80
2022-11-08T06:12:05.097Z,25.05
2022-11-08T06:14:34.674Z,25.15
2022-11-08T06:17:04.352Z,23.83
2022-11-08T06:19:34.305Z,26.10
2022-11-08T06:22:04.589Z,26.88
2022-11-08T06:24:34.479Z,23.00
2022-11-08T06:27:04.671Z,23.85
2022-11-08T06:29:34.571Z,24.10
2022-11-08T06:32:04.529Z,22.58
2022-11-08T06:34:34.567Z,27.75
2022-11-08T06:37:04.540Z,25.60
2022-11-08T06:39:34.490Z,23.35
2022-11-08T06:42:04.517Z,20.50
2022-11-08T06:44:34.419Z,23.23
2022-11-08T06:47:04.273Z,22.58
2022-11-08T06:49:34.260Z,22.75
2022-11-08T06:52:04.081Z,22.77
2022-11-08T06:54:33.915Z,22.63
2022-11-08T06:57:04.048Z,26.83
2022-11-08T06:59:34.067Z,25.27
2022-11-08T07:02:04.176Z,21.17
2022-11-08T07:04:34.201Z,23.42
2022-11-08T07:07:04.087Z,25.83
2022-11-08T07:09:34.080Z,24.27
2022-11-08T07:12:03.718Z,49.08
2022-11-08T07:14:33.294Z,31.58
2022-11-08T07:17:02.921Z,24.77
2022-11-08T07:19:32.547Z,24.02
2022-11-08T07:22:02.484Z,29.88
2022-11-08T07:24:32.743Z,23.30
2022-11-08T07:27:02.629Z,22.02
2022-11-08T07:29:32.574Z,31.10
2022-11-08T07:32:02.572Z,26.20
2022-11-08T07:34:33.337Z,23.38
2022-11-08T07:37:03.241Z,22.98
2022-11-08T07:39:33.142Z,23.45
2022-11-08T07:42:03.018Z,24.60
2022-11-08T07:44:32.942Z,21.80
2022-11-08T07:47:02.845Z,27.48
2022-11-08T07:49:32.723Z,23.42
2022-11-08T07:52:02.695Z,23.67
2022-11-08T07:54:32.720Z,26.48
2022-11-08T07:57:02.620Z,21.45
2022-11-08T07:59:32.540Z,19.35
2022-11-08T08:02:05.554Z,23.38
2022-11-08T08:04:35.640Z,22.48
2022-11-08T08:07:09.045Z,23.60
2022-11-08T08:09:39.972Z,18.85
2022-11-08T08:12:09.951Z,21.52
2022-11-08T08:14:42.628Z,24.27
2022-11-08T08:17:14.153Z,24.75
2022-11-08T08:19:46.761Z,22.77
2022-11-08T08:22:16.747Z,22.50
2022-11-08T08:24:46.349Z,21.08
2022-11-08T08:27:19.380Z,24.75
2022-11-08T08:29:49.301Z,24.05
2022-11-08T08:32:19.259Z,22.38
2022-11-08T08:34:49.124Z,21.83
2022-11-08T08:37:19.223Z,22.05
2022-11-08T08:39:49.094Z,26.90
2022-11-08T08:42:19.178Z,27.60
2022-11-08T08:44:49.040Z,24.42
2022-11-08T08:47:19.050Z,28.65
2022-11-08T08:49:49.013Z,24.95
2022-11-08T08:52:19.986Z,23.38
2022-11-08T08:54:49.600Z,26.35
2022-11-08T08:57:19.230Z,21.38
2022-11-08T09:02:39.930Z,22.45
2022-11-08T09:05:13.084Z,21.67
2022-11-08T09:07:43.141Z,21.40
2022-11-08T09:10:14.020Z,20.55
2022-11-08T09:12:43.627Z,22.00
2022-11-08T09:15:13.342Z,21.02
2022-11-08T09:17:42.901Z,20.63
2022-11-08T09:20:13.633Z,43.63
2022-11-08T09:22:43.421Z,47.47
2022-11-08T09:25:13.987Z,75.22
2022-11-08T09:27:44.106Z,86.00
2022-11-08T09:30:14.457Z,86.03
2022-11-08T09:33:00.234Z,71.20
2022-11-08T09:35:31.559Z,72.05
2022-11-08T09:38:01.613Z,76.90
2022-11-08T09:41:01.960Z,96.50
2022-11-08T09:44:00.942Z,97.63
2022-11-08T09:46:58.390Z,94.78
2022-11-08T09:49:39.787Z,51.97
2022-11-08T09:52:12.057Z,56.00
2022-11-08T09:54:49.099Z,47.95
2022-11-08T09:57:45.763Z,34.73
2022-11-08T10:00:16.721Z,36.22
2022-11-08T10:02:46.726Z,34.67
2022-11-08T10:05:19.610Z,32.38
2022-11-08T10:08:15.429Z,33.80
2022-11-08T10:11:22.767Z,25.38
2022-11-08T10:14:29.557Z,26.95
2022-11-08T10:17:38.310Z,24.42
2022-11-08T10:20:38.199Z,21.63
2022-11-08T10:23:38.557Z,22.23
2022-11-08T10:26:25.723Z,23.33
2022-11-08T10:29:03.663Z,22.65
2022-11-08T10:31:37.195Z,23.75
2022-11-08T10:34:17.043Z,23.27
2022-11-08T10:36:53.140Z,26.38
2022-11-08T10:39:34.040Z,22.38
2022-11-08T10:42:41.138Z,23.60
2022-11-08T10:45:12.042Z,31.90
2022-11-08T10:47:42.717Z,39.25
2022-11-08T10:50:21.320Z,40.47
2022-11-08T10:53:08.641Z,41.88
2022-11-08T10:55:48.316Z,53.50
2022-11-08T10:58:42.741Z,46.50
2022-11-08T11:01:21.709Z,44.00
2022-11-08T11:03:52.688Z,47.35
2022-11-08T11:06:34.381Z,61.30
2022-11-08T11:09:19.336Z,61.13
2022-11-08T11:11:57.732Z,78.75
2022-11-08T11:14:27.594Z,101.18
2022-11-08T11:17:05.488Z,72.63
2022-11-08T11:19:35.371Z,103.50
2022-11-08T11:22:10.770Z,88.55
2022-11-08T11:24:52.650Z,86.45
2022-11-08T11:27:38.249Z,94.95
2022-11-08T11:30:30.005Z,101.63
2022-11-08T11:33:08.741Z,95.30
2022-11-08T11:35:49.919Z,110.53
2022-11-08T11:38:37.812Z,100.82
2022-11-08T11:44:20.288Z,93.28
2022-11-08T11:47:03.742Z,92.97
2022-11-08T11:49:33.681Z,88.28
2022-11-08T11:52:03.233Z,85.07
2022-11-08T11:54:37.492Z,85.90
2022-11-08T11:57:30.847Z,79.13
2022-11-08T12:00:16.798Z,87.55
2022-11-08T12:03:24.195Z,89.07
2022-11-08T12:06:16.472Z,77.88
2022-11-08T12:09:13.276Z,71.05
2022-11-08T12:12:05.526Z,89.35
2022-11-08T12:15:08.361Z,77.65
2022-11-08T12:18:30.558Z,88.68
2022-11-08T12:21:21.236Z,100.30
2022-11-08T12:24:19.348Z,88.28
2022-11-08T12:27:17.925Z,98.25
2022-11-08T12:30:10.609Z,84.53
2022-11-08T12:33:13.043Z,87.60
2022-11-08T12:36:13.841Z,84.88
2022-11-08T12:39:09.263Z,97.78
2022-11-08T12:42:12.100Z,90.93
2022-11-08T12:45:16.288Z,89.47
2022-11-08T12:48:25.038Z,98.15
2022-11-08T12:51:16.512Z,75.75
2022-11-08T12:54:17.909Z,70.28
2022-11-08T12:56:50.028Z,75.38
2022-11-08T12:59:45.690Z,58.05
2022-11-08T13:02:31.885Z,64.43
2022-11-08T13:05:24.413Z,66.13
2022-11-08T13:08:33.149Z,75.38
2022-11-08T13:11:11.430Z,86.18
2022-11-08T13:13:55.977Z,75.07
2022-11-08T13:16:43.423Z,73.65
2022-11-08T13:19:52.148Z,69.22
2022-11-08T13:22:45.740Z,69.25
2022-11-08T13:25:36.240Z,67.90
2022-11-08T13:28:45.346Z,67.60
2022-11-08T13:31:27.822Z,61.38
2022-11-08T13:34:18.476Z,52.03
2022-11-08T13:37:27.177Z,51.40
2022-11-08T13:40:24.203Z,45.88
2022-11-08T13:43:24.853Z,47.73
2022-11-08T13:45:55.557Z,40.25
2022-11-08T13:48:37.201Z,40.92
2022-11-08T13:51:31.308Z,41.92
2022-11-08T13:54:07.825Z,45.60
2022-11-08T13:56:56.750Z,44.22
2022-11-08T14:00:01.132Z,38.63
2022-11-08T14:02:33.500Z,46.50
2022-11-08T14:05:25.282Z,46.63
2022-11-08T14:08:18.322Z,50.22
2022-11-08T14:11:27.126Z,41.95
2022-11-08T14:14:17.720Z,40.63
2022-11-08T14:17:10.077Z,41.10
2022-11-08T14:19:42.301Z,39.97
2022-11-08T14:22:32.209Z,42.58
2022-11-08T14:25:16.297Z,41.92
2022-11-08T14:27:46.189Z,45.88
2022-11-08T14:30:22.298Z,43.58
2022-11-08T14:33:19.164Z,40.70
2022-11-08T14:36:16.826Z,42.00
2022-11-08T14:38:54.528Z,38.17
2022-11-08T14:41:28.920Z,39.67
2022-11-08T14:44:01.288Z,40.90
2022-11-08T14:46:40.095Z,37.28
2022-11-08T14:49:33.735Z,39.05
2022-11-08T14:52:16.862Z,35.75
2022-11-08T14:54:48.895Z,36.63
2022-11-08T14:57:43.103Z,35.00
2022-11-08T15:00:29.031Z,35.00
2022-11-08T15:03:05.091Z,32.10
2022-11-08T15:05:42.712Z,36.97
2022-11-08T15:08:37.133Z,37.15
2022-11-08T15:11:12.655Z,36.85
2022-11-08T15:13:50.563Z,35.92
2022-11-08T15:16:20.563Z,31.88
2022-11-08T15:18:50.146Z,40.22
2022-11-08T15:21:31.279Z,37.00
2022-11-08T15:24:14.225Z,37.47
2022-11-08T15:27:06.885Z,34.05
2022-11-08T15:30:03.804Z,36.85
2022-11-08T15:32:39.774Z,42.90
2022-11-08T15:35:30.498Z,37.42
2022-11-08T15:38:40.156Z,31.98
2022-11-08T15:41:40.210Z,33.75
2022-11-08T15:44:27.168Z,34.00
2022-11-08T15:46:58.207Z,40.60
2022-11-08T15:49:30.394Z,36.00
2022-11-08T15:52:00.637Z,35.08
2022-11-08T15:54:30.540Z,30.58
2022-11-08T15:57:00.538Z,33.33
2022-11-08T15:59:32.668Z,34.75
2022-11-08T16:02:04.235Z,33.70
2022-11-08T16:04:34.175Z,28.80
2022-11-08T16:07:04.168Z,37.25
2022-11-08T16:09:34.504Z,32.28
2022-11-08T16:12:05.749Z,30.98
2022-11-08T16:14:35.822Z,30.95
2022-11-08T16:17:05.753Z,32.22
2022-11-08T16:19:35.650Z,35.67
2022-11-08T16:22:09.095Z,27.25
2022-11-08T16:24:39.022Z,35.53
2022-11-08T16:27:08.933Z,30.10
2022-11-08T16:29:38.881Z,28.52
2022-11-08T16:32:11.902Z,26.58
2022-11-08T16:34:42.198Z,28.30
2022-11-08T16:37:12.900Z,30.85
2022-11-08T16:39:42.592Z,31.27
2022-11-08T16:42:14.779Z,28.67
2022-11-08T16:44:45.988Z,33.70
2022-11-08T16:47:20.000Z,31.92
2022-11-08T16:49:51.445Z,29.33
2022-11-08T16:52:21.143Z,29.55
2022-11-08T16:54:50.734Z,30.52
2022-11-08T16:57:34.296Z,34.70
2022-11-08T17:00:04.977Z,29.75
2022-11-08T17:02:36.688Z,30.65
2022-11-08T17:05:06.838Z,27.50
2022-11-08T17:07:37.167Z,30.63
2022-11-08T17:10:07.018Z,34.30
2022-11-08T17:12:36.819Z,30.33
2022-11-08T17:15:06.527Z,28.27
2022-11-08T17:17:35.993Z,28.63
2022-11-08T17:20:06.025Z,29.65
2022-11-08T17:22:35.981Z,29.70
2022-11-08T17:25:05.619Z,31.90
2022-11-08T17:27:35.708Z,33.42
2022-11-08T17:30:05.445Z,30.20
2022-11-08T17:32:36.323Z,29.67
2022-11-08T17:35:08.280Z,31.58
2022-11-08T17:37:38.679Z,30.77
2022-11-08T17:40:10.261Z,41.15
2022-11-08T17:42:41.091Z,30.15
2022-11-08T17:45:12.380Z,33.63
2022-11-08T17:47:42.007Z,30.60
2022-11-08T17:50:11.959Z,32.40
2022-11-08T17:52:41.670Z,29.52
2022-11-08T17:55:11.376Z,28.67
2022-11-08T17:57:40.966Z,38.05
2022-11-08T18:00:11.528Z,30.15
2022-11-08T18:02:41.178Z,29.90
2022-11-08T18:05:10.862Z,27.23
2022-11-08T18:07:41.700Z,31.63
2022-11-08T18:10:11.677Z,32.10
2022-11-08T18:12:41.217Z,27.98
2022-11-08T18:15:11.378Z,28.30
2022-11-08T18:17:41.267Z,28.83
2022-11-08T18:20:11.431Z,28.42
2022-11-08T18:22:41.130Z,33.30
2022-11-08T18:25:11.472Z,34.10
2022-11-08T18:27:41.071Z,31.23
2022-11-08T18:30:11.230Z,32.13
2022-11-08T18:32:40.847Z,29.95
2022-11-08T18:35:11.821Z,34.75
2022-11-08T18:37:42.123Z,31.02
2022-11-08T18:40:13.029Z,30.85
2022-11-08T18:42:43.000Z,35.97
2022-11-08T18:45:13.261Z,30.05
2022-11-08T18:47:44.927Z,31.95
2022-11-08T18:50:14.838Z,28.65
2022-11-08T18:52:47.119Z,28.40
2022-11-08T18:55:18.096Z,28.60
2022-11-08T18:57:48.101Z,25.20
2022-11-08T19:00:19.563Z,31.98
2022-11-08T19:02:49.542Z,28.05
2022-11-08T19:05:19.552Z,33.08
2022-11-08T19:07:49.402Z,27.45
2022-11-08T19:10:19.480Z,28.67
2022-11-08T19:12:49.340Z,29.83
2022-11-08T19:15:19.419Z,33.25
2022-11-08T19:17:52.695Z,32.22
2022-11-08T19:20:25.636Z,26.65
2022-11-08T19:22:57.224Z,32.63
2022-11-08T19:25:27.110Z,28.67
2022-11-08T19:27:57.269Z,28.73
2022-11-08T19:30:27.210Z,31.08
2022-11-08T19:32:57.127Z,31.15
2022-11-08T19:35:27.398Z,28.85
2022-11-08T19:37:57.880Z,25.70
2022-11-08T19:40:32.063Z,29.48
2022-11-08T19:43:02.250Z,28.05
2022-11-08T19:45:32.079Z,27.20
2022-11-08T19:48:01.981Z,29.23
2022-11-08T19:50:31.907Z,29.17
2022-11-08T19:53:06.450Z,30.90
2022-11-08T19:55:37.407Z,38.72
2022-11-08T19:58:07.431Z,34.03
2022-11-08T20:00:38.377Z,38.22
2022-11-08T20:03:09.151Z,38.92
2022-11-08T20:05:39.095Z,36.65
2022-11-08T20:08:11.334Z,44.63
2022-11-08T20:10:41.275Z,37.53
2022-11-08T20:13:11.398Z,44.78
2022-11-08T20:15:41.358Z,47.55
2022-11-08T20:18:11.334Z,53.22
2022-11-08T20:20:42.729Z,47.63
2022-11-08T20:23:18.159Z,46.10
2022-11-08T20:25:48.189Z,63.72
2022-11-08T20:28:18.347Z,62.42
2022-11-08T20:30:48.409Z,58.95
2022-11-08T20:33:18.350Z,54.08
2022-11-08T20:35:48.638Z,40.45
2022-11-08T20:38:19.531Z,35.25
2022-11-08T20:40:49.787Z,34.38
2022-11-08T20:43:19.673Z,33.17
2022-11-08T20:45:49.911Z,32.28
2022-11-08T20:48:19.946Z,34.15
2022-11-08T20:50:50.190Z,29.35
2022-11-08T20:53:20.120Z,32.97
2022-11-08T20:56:02.267Z,32.05
2022-11-08T20:58:33.597Z,34.45
2022-11-08T21:01:04.498Z,31.58
2022-11-08T21:03:34.770Z,32.70
2022-11-08T21:06:10.083Z,29.15
2022-11-08T21:11:31.797Z,29.80
2022-11-08T21:14:01.404Z,40.65
2022-11-08T21:16:38.272Z,31.42
2022-11-08T21:19:12.245Z,29.42
2022-11-08T21:21:41.964Z,29.92
2022-11-08T21:24:11.630Z,32.05
2022-11-08T21:26:42.382Z,32.55
2022-11-08T21:29:11.969Z,31.30
2022-11-08T21:31:41.519Z,26.15
2022-11-08T21:34:11.547Z,30.08
2022-11-08T21:36:41.561Z,32.05
2022-11-08T21:39:11.953Z,27.73
2022-11-08T21:41:41.735Z,35.05
2022-11-08T21:44:11.305Z,35.58
2022-11-08T21:46:40.967Z,28.88
2022-11-08T21:49:13.903Z,30.42
2022-11-08T21:51:43.518Z,33.22
2022-11-08T21:54:13.101Z,42.50
2022-11-08T21:56:42.751Z,31.27
2022-11-08T21:59:13.357Z,31.05
2022-11-08T22:01:43.447Z,31.88
2022-11-08T22:04:12.999Z,33.08
2022-11-08T22:06:46.529Z,29.35
2022-11-08T22:09:17.340Z,28.90
2022-11-08T22:11:46.952Z,27.92
2022-11-08T22:14:16.595Z,26.98
2022-11-08T22:16:46.305Z,23.08
2022-11-08T22:19:15.907Z,28.63
2022-11-08T22:21:47.708Z,29.40
2022-11-08T22:24:24.192Z,27.75
2022-11-08T22:26:54.675Z,27.50
2022-11-08T22:29:24.355Z,27.20
2022-11-08T22:31:54.083Z,26.90
2022-11-08T22:34:24.068Z,29.30
2022-11-08T22:36:53.952Z,29.50
2022-11-08T22:39:25.668Z,34.47
2022-11-08T22:41:57.669Z,28.10
2022-11-08T22:44:27.321Z,30.52
2022-11-08T22:46:56.981Z,30.17
2022-11-08T22:49:26.554Z,25.02
2022-11-08T22:51:56.125Z,26.90
2022-11-08T22:54:25.678Z,27.40
2022-11-08T22:56:55.253Z,29.63
2022-11-08T22:59:24.889Z,32.88
2022-11-08T23:01:54.552Z,30.92
2022-11-08T23:04:24.141Z,27.27
2022-11-08T23:06:53.834Z,26.67
2022-11-08T23:09:23.529Z,26.75
2022-11-08T23:12:12.768Z,30.30
2022-11-08T23:15:01.968Z,28.25
2022-11-08T23:17:31.651Z,26.55
2022-11-08T23:20:20.895Z,28.00
2022-11-08T23:23:10.100Z,32.35
2022-11-08T23:25:39.658Z,29.73
2022-11-08T23:28:28.846Z,29.60
2022-11-08T23:31:18.021Z,32.70
2022-11-08T23:33:47.658Z,31.55
2022-11-08T23:36:17.518Z,34.35
2022-11-08T23:38:47.429Z,35.30
2022-11-08T23:41:36.971Z,34.15
2022-11-08T23:44:26.138Z,36.15
2022-11-08T23:47:01.807Z,34.53
2022-11-08T23:49:31.734Z,32.95
2022-11-08T23:52:01.283Z,35.85
2022-11-08T23:54:30.882Z,31.08
2022-11-08T23:57:00.409Z,32.67
2022-11-08T23:59:29.949Z,33.67
